メインページ
METAR-TAF:

METAR-TAF

空港 :

ガティノー, ケベック州, カナダ

緯度: 45-31N, 経度: 075-34W, 海抜: 64m

現時点の気象観測

当レポートは36分前の13:28(UTC)に作成
西/北西の風 11kt、最大19ktの突風を伴う
気温 -4°C
湿度 86%
気圧 999 hPa
視程: 19.3km
高度1300ftの千切れ雲あり
高度5500ftの曇り
小雪

METAR: CYND 151328Z 29011G19KT 12SM -SN BKN013 OVC055 M04/M06 A2951 RMK SC7SC1 SLP997

時間: 09:04 (14:04 UTC)

予報

当レポートは26分前の13:38(UTC)に作成
予報は15日の 14時(UTC)から 16日の 02時(UTC)まで有効
西/北西の風 10kt、最大20ktの突風を伴う
視程: 10km
高度1200ftの千切れ雲あり
高度5000ftの曇り
小雪
15日の 14時(UTC)から 15日の 18時(UTC)まで一時的に
視程: 10km
高度2000ftの雲は散在している
高度6000ftの千切れ雲あり
15日の 14時(UTC)から 15日の 16時(UTC)まで徐々に
西の風 15kt、最大25ktの突風を伴う
15日の 1800時(UTC)から
西の風 15kt、最大25ktの突風を伴う
視程: 10km
高度3000ftの千切れ雲あり
15日の 2100時(UTC)から
西の風 12kt、最大22ktの突風を伴う
視程: 10km
高度3000ftの雲は散在している
15日の 22時(UTC)から 15日の 24時(UTC)まで徐々に
西の風 10kt、最大20ktの突風を伴う

TAF: CYND 151338Z 1514/1602 29010G20KT P6SM -SN BKN012 OVC050 TEMPO 1514/1518 P6SM NSW SCT020 BKN060 BECMG 1514/1516 28015G25KT FM151800 28015G25KT P6SM BKN030 FM152100 28012G22KT P6SM SCT030 BECMG 1522/1524 28010G20KT RMK NXT FCST BY 151800Z

4,000以上の空港の気象観測と天気予報(METAR報とTAF報)

利用可能な観測所は地図上に黄色い丸と赤い丸で示す。

丸の上にカーソルを重ねると観測所名を参照できる。

次にクリックすると気象観測と天気予報を参照できる。

マップの切り替え:黒色「×」印の緑ボタンをクリックして拡大、「-」印の緑ボタンをクリックして縮小、緑色の三角印をクリックして隣りの地図に切り替え


METAR-TAF: